createdAt,value
2022-09-12T00:02:24.331Z,100.00
2022-09-12T00:04:52.452Z,100.00
2022-09-12T00:07:21.401Z,100.00
2022-09-12T00:09:49.007Z,100.00
2022-09-12T00:12:16.751Z,100.00
2022-09-12T00:14:44.363Z,100.00
2022-09-12T00:17:12.482Z,100.00
2022-09-12T00:19:40.097Z,100.00
2022-09-12T00:22:07.789Z,100.00
2022-09-12T00:24:36.672Z,100.00
2022-09-12T00:27:04.461Z,100.00
2022-09-12T00:29:32.035Z,100.00
2022-09-12T00:31:59.667Z,100.00
2022-09-12T00:34:27.207Z,100.00
2022-09-12T00:36:54.736Z,100.00
2022-09-12T00:39:22.533Z,100.00
2022-09-12T00:41:51.583Z,100.00
2022-09-12T00:44:43.758Z,100.00
2022-09-12T00:47:17.439Z,100.00
2022-09-12T00:49:49.646Z,100.00
2022-09-12T00:52:20.785Z,100.00
2022-09-12T00:54:52.843Z,100.00
2022-09-12T00:57:24.560Z,100.00
2022-09-12T00:59:56.603Z,100.00
2022-09-12T01:02:24.472Z,100.00
2022-09-12T01:04:52.999Z,100.00
2022-09-12T01:07:21.035Z,100.00
2022-09-12T01:09:48.937Z,100.00
2022-09-12T01:12:17.644Z,100.00
2022-09-12T01:14:46.689Z,100.00
2022-09-12T01:17:16.732Z,100.00
2022-09-12T01:20:29.965Z,100.00
2022-09-12T01:23:25.916Z,100.00
2022-09-12T01:26:08.805Z,100.00
2022-09-12T01:29:00.272Z,100.00
2022-09-12T01:31:35.424Z,100.00
2022-09-12T01:34:16.487Z,100.00
2022-09-12T01:36:53.827Z,100.00
2022-09-12T01:39:31.304Z,100.00
2022-09-12T01:42:11.730Z,100.00
2022-09-12T01:44:49.093Z,100.00
2022-09-12T01:47:23.963Z,100.00
2022-09-12T01:49:58.932Z,100.00
2022-09-12T01:52:31.720Z,100.00
2022-09-12T01:55:09.614Z,100.00
2022-09-12T01:57:44.032Z,100.00
2022-09-12T02:00:13.443Z,100.00
2022-09-12T02:02:52.943Z,100.00
2022-09-12T02:05:26.370Z,100.00
2022-09-12T02:07:58.071Z,100.00
2022-09-12T02:10:32.700Z,100.00
2022-09-12T02:13:04.701Z,100.00
2022-09-12T02:15:37.201Z,100.00
2022-09-12T02:18:07.860Z,100.00
2022-09-12T02:20:48.859Z,100.00
2022-09-12T02:23:20.760Z,100.00
2022-09-12T02:25:53.399Z,100.00
2022-09-12T02:28:27.356Z,100.00
2022-09-12T02:31:06.195Z,100.00
2022-09-12T02:33:46.340Z,100.00
2022-09-12T02:36:23.861Z,100.00
2022-09-12T02:38:51.970Z,100.00
2022-09-12T02:41:21.757Z,100.00
2022-09-12T02:43:51.389Z,100.00
2022-09-12T02:46:23.560Z,100.00
2022-09-12T02:48:52.536Z,100.00
2022-09-12T02:51:23.686Z,100.00
2022-09-12T02:53:52.355Z,100.00
2022-09-12T02:56:26.522Z,100.00
2022-09-12T02:58:55.194Z,100.00
2022-09-12T03:01:33.581Z,100.00
2022-09-12T03:04:19.736Z,100.00
2022-09-12T03:06:59.462Z,100.00
2022-09-12T03:09:36.070Z,100.00
2022-09-12T03:12:11.975Z,100.00
2022-09-12T03:15:01.561Z,100.00
2022-09-12T03:17:44.315Z,100.00
2022-09-12T03:20:16.925Z,100.00
2022-09-12T03:22:54.188Z,100.00
2022-09-12T03:25:26.044Z,100.00
2022-09-12T03:27:58.816Z,100.00
2022-09-12T03:30:27.142Z,100.00
2022-09-12T03:32:56.096Z,100.00
2022-09-12T03:35:26.013Z,100.00
2022-09-12T03:37:54.070Z,100.00
2022-09-12T03:40:22.116Z,100.00
2022-09-12T03:42:49.703Z,100.00
2022-09-12T03:45:17.513Z,100.00
2022-09-12T03:47:45.231Z,100.00
2022-09-12T03:50:13.002Z,100.00
2022-09-12T03:52:42.148Z,100.00
2022-09-12T03:55:10.932Z,100.00
2022-09-12T03:57:38.788Z,100.00
2022-09-12T04:00:08.460Z,100.00
2022-09-12T04:02:36.516Z,100.00
2022-09-12T04:05:04.324Z,100.00
2022-09-12T04:07:32.059Z,100.00
2022-09-12T04:10:01.004Z,100.00
2022-09-12T04:12:30.277Z,100.00
2022-09-12T04:14:57.951Z,100.00
2022-09-12T04:17:25.702Z,100.00
2022-09-12T04:19:53.258Z,100.00
2022-09-12T04:22:21.109Z,100.00
2022-09-12T04:24:48.638Z,100.00
2022-09-12T04:27:17.680Z,100.00
2022-09-12T04:29:45.327Z,100.00
2022-09-12T04:32:12.912Z,100.00
2022-09-12T04:34:40.506Z,100.00
2022-09-12T04:37:08.172Z,100.00
2022-09-12T04:39:35.782Z,100.00
2022-09-12T04:42:04.582Z,100.00
2022-09-12T04:44:33.684Z,100.00
2022-09-12T04:47:01.374Z,100.00
2022-09-12T04:49:29.070Z,100.00
2022-09-12T04:51:56.661Z,100.00
2022-09-12T04:54:24.467Z,100.00
2022-09-12T04:56:52.743Z,100.00
2022-09-12T04:59:22.300Z,100.00
2022-09-12T05:01:51.781Z,100.00
2022-09-12T05:04:19.724Z,100.00
2022-09-12T05:06:48.096Z,100.00
2022-09-12T05:09:16.525Z,100.00
2022-09-12T05:14:33.765Z,100.00
2022-09-12T05:17:03.729Z,100.00
2022-09-12T05:19:32.009Z,100.00
2022-09-12T05:22:00.345Z,100.00
2022-09-12T05:24:28.088Z,100.00
2022-09-12T05:26:55.871Z,100.00
2022-09-12T05:29:25.095Z,100.00
2022-09-12T05:31:53.148Z,100.00
2022-09-12T05:34:22.341Z,100.00
2022-09-12T05:36:50.140Z,99.65
2022-09-12T05:39:18.475Z,99.02
2022-09-12T05:41:46.363Z,98.05
2022-09-12T05:44:15.135Z,97.08
2022-09-12T05:46:44.986Z,96.77
2022-09-12T05:49:14.453Z,95.99
2022-09-12T05:51:45.897Z,95.11
2022-09-12T05:54:18.653Z,93.20
2022-09-12T05:56:46.511Z,92.10
2022-09-12T05:59:16.095Z,91.43
2022-09-12T06:01:44.496Z,89.70
2022-09-12T06:04:13.065Z,89.17
2022-09-12T06:06:44.868Z,89.32
2022-09-12T06:09:13.721Z,85.66
2022-09-12T06:11:42.208Z,79.95
2022-09-12T06:14:11.112Z,74.59
2022-09-12T06:16:39.870Z,70.58
2022-09-12T06:19:10.449Z,69.54
2022-09-12T06:21:39.759Z,67.04
2022-09-12T06:24:09.183Z,65.16
2022-09-12T06:26:37.092Z,64.87
2022-09-12T06:29:05.233Z,63.91
2022-09-12T06:31:34.361Z,63.64
2022-09-12T06:34:04.799Z,60.03
2022-09-12T06:36:34.256Z,60.17
2022-09-12T06:39:04.373Z,56.40
2022-09-12T06:41:33.616Z,58.24
2022-09-12T06:44:03.178Z,58.23
2022-09-12T06:46:32.182Z,62.01
2022-09-12T06:49:00.795Z,61.44
2022-09-12T06:51:29.818Z,57.04
2022-09-12T06:53:58.197Z,60.16
2022-09-12T06:56:28.441Z,56.04
2022-09-12T06:58:59.177Z,57.00
2022-09-12T07:01:28.750Z,60.46
2022-09-12T07:03:58.727Z,58.60
2022-09-12T07:06:31.695Z,61.34
2022-09-12T07:09:00.445Z,58.48
2022-09-12T07:11:30.465Z,57.72
2022-09-12T07:14:00.841Z,52.44
2022-09-12T07:16:28.798Z,52.44
2022-09-12T07:18:58.680Z,52.06
2022-09-12T07:21:26.456Z,51.61
2022-09-12T07:23:55.315Z,52.44
2022-09-12T07:26:23.072Z,56.25
2022-09-12T07:28:53.982Z,54.84
2022-09-12T07:31:24.665Z,57.72
2022-09-12T07:33:54.604Z,55.25
2022-09-12T07:36:24.605Z,52.19
2022-09-12T07:38:57.453Z,49.54
2022-09-12T07:41:27.688Z,50.74
2022-09-12T07:43:56.691Z,51.35
2022-09-12T07:46:26.905Z,53.19
2022-09-12T07:48:56.468Z,54.62
2022-09-12T07:51:25.376Z,52.21
2022-09-12T07:53:53.042Z,49.95
2022-09-12T07:56:27.373Z,52.78
2022-09-12T07:58:57.691Z,52.64
2022-09-12T08:01:27.687Z,51.27
2022-09-12T08:03:57.506Z,54.40
2022-09-12T08:06:26.268Z,53.37
2022-09-12T08:08:55.873Z,52.54
2022-09-12T08:11:25.029Z,53.85
2022-09-12T08:13:55.559Z,51.78
2022-09-12T08:16:27.174Z,49.60
2022-09-12T08:18:54.844Z,53.15
2022-09-12T08:21:24.165Z,50.39
2022-09-12T08:23:54.794Z,49.55
2022-09-12T08:26:23.338Z,53.46
2022-09-12T08:28:51.932Z,54.55
2022-09-12T08:31:21.709Z,57.49
2022-09-12T08:33:51.107Z,54.68
2022-09-12T08:36:21.113Z,58.38
2022-09-12T08:38:50.779Z,57.47
2022-09-12T08:41:27.964Z,58.31
2022-09-12T08:44:12.895Z,55.30
2022-09-12T08:46:51.656Z,54.10
2022-09-12T08:49:30.062Z,55.54
2022-09-12T08:52:03.973Z,53.69
2022-09-12T08:54:32.587Z,53.33
2022-09-12T08:57:05.817Z,55.38
2022-09-12T08:59:39.099Z,56.27
2022-09-12T09:02:24.859Z,55.62
2022-09-12T09:05:02.514Z,58.46
2022-09-12T09:07:47.808Z,59.16
2022-09-12T09:10:25.393Z,58.62
2022-09-12T09:13:01.829Z,56.59
2022-09-12T09:15:45.454Z,56.00
2022-09-12T09:18:19.581Z,55.17
2022-09-12T09:20:52.890Z,54.57
2022-09-12T09:23:26.594Z,56.59
2022-09-12T09:26:01.715Z,55.37
2022-09-12T09:28:37.470Z,56.67
2022-09-12T09:31:06.991Z,55.08
2022-09-12T09:33:36.207Z,54.67
2022-09-12T09:36:15.100Z,55.34
2022-09-12T09:38:49.106Z,56.33
2022-09-12T09:41:40.591Z,55.58
2022-09-12T09:44:08.778Z,57.97
2022-09-12T09:46:36.569Z,58.05
2022-09-12T09:49:06.996Z,56.53
2022-09-12T09:51:37.455Z,55.27
2022-09-12T09:54:15.713Z,53.41
2022-09-12T09:56:45.267Z,55.43
2022-09-12T09:59:15.968Z,58.03
2022-09-12T10:01:49.093Z,56.65
2022-09-12T10:04:22.344Z,56.61
2022-09-12T10:06:53.211Z,56.59
2022-09-12T10:09:24.735Z,57.56
2022-09-12T10:11:55.722Z,56.10
2022-09-12T10:14:37.603Z,54.52
2022-09-12T10:17:29.507Z,53.62
2022-09-12T10:20:19.838Z,53.10
2022-09-12T10:22:49.098Z,55.48
2022-09-12T10:25:19.756Z,55.30
2022-09-12T10:27:55.156Z,56.19
2022-09-12T10:30:25.140Z,54.73
2022-09-12T10:32:54.055Z,55.62
2022-09-12T10:35:23.837Z,54.78
2022-09-12T10:37:55.109Z,54.21
2022-09-12T10:40:25.729Z,54.01
2022-09-12T10:42:56.203Z,53.66
2022-09-12T10:45:29.029Z,52.63
2022-09-12T10:48:02.091Z,53.83
2022-09-12T10:50:36.813Z,52.12
2022-09-12T10:53:17.744Z,51.20
2022-09-12T10:56:06.093Z,50.41
2022-09-12T10:59:05.388Z,52.65
2022-09-12T11:01:42.651Z,51.73
2022-09-12T11:04:23.069Z,51.82
2022-09-12T11:07:02.215Z,51.87
2022-09-12T11:09:38.687Z,49.99
2022-09-12T11:12:15.886Z,49.50
2022-09-12T11:14:59.445Z,50.75
2022-09-12T11:17:37.977Z,51.08
2022-09-12T11:20:42.144Z,49.21
2022-09-12T11:23:46.279Z,48.60
2022-09-12T11:26:25.909Z,47.27
2022-09-12T11:29:06.731Z,46.54
2022-09-12T11:32:10.360Z,48.64
2022-09-12T11:34:55.229Z,47.93
2022-09-12T11:37:43.597Z,48.69
2022-09-12T11:40:24.749Z,48.64
2022-09-12T11:42:56.349Z,49.81
2022-09-12T11:45:30.439Z,49.26
2022-09-12T11:48:07.106Z,48.98
2022-09-12T11:50:35.019Z,49.57
2022-09-12T11:53:12.420Z,49.08
2022-09-12T11:55:50.218Z,52.35
2022-09-12T11:58:21.252Z,50.59
2022-09-12T12:00:53.340Z,48.68
2022-09-12T12:03:31.959Z,48.57
2022-09-12T12:06:05.777Z,49.33
2022-09-12T12:08:39.656Z,50.26
2022-09-12T12:11:08.985Z,49.99
2022-09-12T12:13:39.676Z,50.49
2022-09-12T12:16:13.804Z,51.43
2022-09-12T12:18:43.998Z,49.81
2022-09-12T12:21:31.305Z,47.65
2022-09-12T12:24:11.690Z,47.48
2022-09-12T12:26:58.799Z,48.86
2022-09-12T12:29:44.026Z,47.04
2022-09-12T12:32:33.014Z,46.38
2022-09-12T12:35:40.157Z,45.87
2022-09-12T12:38:30.087Z,45.39
2022-09-12T12:41:39.659Z,48.20
2022-09-12T12:44:40.523Z,46.44
2022-09-12T12:47:19.609Z,47.85
2022-09-12T12:49:54.402Z,46.42
2022-09-12T12:52:24.350Z,45.26
2022-09-12T12:54:57.188Z,44.78
2022-09-12T12:57:40.537Z,45.67
2022-09-12T13:00:26.605Z,45.79
2022-09-12T13:02:59.895Z,45.58
2022-09-12T13:05:29.873Z,46.51
2022-09-12T13:08:04.388Z,47.19
2022-09-12T13:10:32.738Z,47.54
2022-09-12T13:13:05.145Z,45.77
2022-09-12T13:15:49.540Z,47.02
2022-09-12T13:18:23.098Z,45.87
2022-09-12T13:20:56.102Z,45.53
2022-09-12T13:23:28.055Z,44.98
2022-09-12T13:25:58.023Z,46.34
2022-09-12T13:28:28.525Z,45.86
2022-09-12T13:31:01.224Z,45.54
2022-09-12T13:33:39.663Z,45.05
2022-09-12T13:36:42.474Z,44.74
2022-09-12T13:39:24.802Z,44.38
2022-09-12T13:42:09.170Z,44.47
2022-09-12T13:44:44.476Z,43.44
2022-09-12T13:47:16.323Z,44.34
2022-09-12T13:49:44.958Z,42.36
2022-09-12T13:52:18.122Z,43.21
2022-09-12T13:54:50.977Z,44.14
2022-09-12T13:57:31.765Z,44.56
2022-09-12T14:00:02.012Z,45.13
2022-09-12T14:02:31.370Z,43.39
2022-09-12T14:05:10.126Z,44.40
2022-09-12T14:07:54.949Z,44.54
2022-09-12T14:10:30.130Z,44.77
2022-09-12T14:12:59.051Z,45.50
2022-09-12T14:15:29.785Z,44.75
2022-09-12T14:18:01.270Z,43.86
2022-09-12T14:20:32.592Z,44.02
2022-09-12T14:23:03.287Z,44.82
2022-09-12T14:25:38.963Z,44.63
2022-09-12T14:28:09.166Z,43.90
2022-09-12T14:30:38.260Z,43.33
2022-09-12T14:33:17.700Z,42.58
2022-09-12T14:35:47.062Z,44.39
2022-09-12T14:38:26.864Z,43.95
2022-09-12T14:41:02.202Z,44.05
2022-09-12T14:43:31.519Z,44.22
2022-09-12T14:46:01.712Z,44.84
2022-09-12T14:48:33.744Z,45.57
2022-09-12T14:51:02.172Z,45.08
2022-09-12T14:53:34.485Z,46.43
2022-09-12T14:56:10.766Z,45.00
2022-09-12T14:58:39.357Z,45.40
2022-09-12T15:01:27.426Z,45.65
2022-09-12T15:03:57.038Z,45.45
2022-09-12T15:06:29.753Z,46.31
2022-09-12T15:09:00.712Z,46.79
2022-09-12T15:11:29.688Z,46.75
2022-09-12T15:13:58.214Z,47.44
2022-09-12T15:16:25.935Z,46.93
2022-09-12T15:18:53.458Z,47.72
2022-09-12T15:21:22.231Z,47.46
2022-09-12T15:23:51.891Z,46.90
2022-09-12T15:26:21.692Z,49.41
2022-09-12T15:28:51.103Z,48.11
2022-09-12T15:31:25.151Z,46.68
2022-09-12T15:33:53.084Z,46.63
2022-09-12T15:36:22.817Z,47.13
2022-09-12T15:38:51.407Z,47.09
2022-09-12T15:41:21.392Z,47.18
2022-09-12T15:43:51.047Z,48.05
2022-09-12T15:46:21.665Z,46.97
2022-09-12T15:48:50.106Z,47.71
2022-09-12T15:51:19.747Z,49.36
2022-09-12T15:53:50.544Z,48.72
2022-09-12T15:56:19.843Z,49.26
2022-09-12T15:58:58.429Z,49.25
2022-09-12T16:01:29.726Z,49.20
2022-09-12T16:03:57.819Z,48.70
2022-09-12T16:06:33.571Z,48.98
2022-09-12T16:09:04.418Z,48.88
2022-09-12T16:11:32.965Z,48.22
2022-09-12T16:14:00.707Z,48.46
2022-09-12T16:16:30.670Z,48.08
2022-09-12T16:18:58.449Z,49.46
2022-09-12T16:21:26.620Z,49.94
2022-09-12T16:23:54.537Z,50.03
2022-09-12T16:26:22.248Z,51.27
2022-09-12T16:28:56.114Z,50.12
2022-09-12T16:31:23.915Z,50.39
2022-09-12T16:33:53.069Z,50.87
2022-09-12T16:36:22.364Z,51.64
2022-09-12T16:38:52.007Z,51.94
2022-09-12T16:41:24.984Z,51.54
2022-09-12T16:43:52.874Z,51.73
2022-09-12T16:46:22.228Z,52.57
2022-09-12T16:48:52.725Z,53.16
2022-09-12T16:51:23.628Z,52.98
2022-09-12T16:53:51.614Z,53.57
2022-09-12T16:56:19.612Z,53.52
2022-09-12T16:58:47.596Z,53.83
2022-09-12T17:01:17.487Z,53.96
2022-09-12T17:03:45.303Z,54.28
2022-09-12T17:06:14.285Z,54.60
2022-09-12T17:08:48.850Z,54.62
2022-09-12T17:11:19.392Z,55.12
2022-09-12T17:14:07.574Z,55.23
2022-09-12T17:16:37.429Z,55.43
2022-09-12T17:19:05.950Z,55.40
2022-09-12T17:21:34.142Z,56.08
2022-09-12T17:24:07.676Z,56.14
2022-09-12T17:26:36.559Z,56.35
2022-09-12T17:29:04.474Z,56.47
2022-09-12T17:31:32.292Z,56.56
2022-09-12T17:34:01.371Z,56.78
2022-09-12T17:36:31.440Z,56.96
2022-09-12T17:38:59.639Z,57.45
2022-09-12T17:41:33.902Z,57.95
2022-09-12T17:44:03.539Z,58.16
2022-09-12T17:46:34.915Z,58.54
2022-09-12T17:49:03.864Z,58.88
2022-09-12T17:51:32.290Z,59.03
2022-09-12T17:54:02.245Z,59.85
2022-09-12T17:56:33.277Z,59.87
2022-09-12T17:59:02.352Z,59.46
2022-09-12T18:01:49.836Z,59.82
2022-09-12T18:04:18.213Z,59.99
2022-09-12T18:06:48.562Z,60.43
2022-09-12T18:09:18.242Z,60.38
2022-09-12T18:11:48.074Z,61.08
2022-09-12T18:14:17.260Z,61.32
2022-09-12T18:16:45.274Z,61.55
2022-09-12T18:19:13.803Z,61.09
2022-09-12T18:21:41.795Z,61.00
2022-09-12T18:24:11.117Z,61.97
2022-09-12T18:26:39.078Z,62.87
2022-09-12T18:29:08.337Z,63.60
2022-09-12T18:31:36.937Z,64.27
2022-09-12T18:34:06.153Z,64.84
2022-09-12T18:36:33.925Z,65.28
2022-09-12T18:39:01.655Z,65.26
2022-09-12T18:41:29.839Z,65.38
2022-09-12T18:44:01.991Z,64.92
2022-09-12T18:46:48.699Z,65.37
2022-09-12T18:49:16.384Z,66.53
2022-09-12T18:51:44.482Z,66.56
2022-09-12T18:54:14.529Z,67.43
2022-09-12T18:56:44.002Z,67.19
2022-09-12T18:59:14.225Z,67.66
2022-09-12T19:01:43.955Z,67.67
2022-09-12T19:04:13.379Z,67.93
2022-09-12T19:06:43.098Z,68.13
2022-09-12T19:09:12.285Z,67.73
2022-09-12T19:11:42.496Z,67.92
2022-09-12T19:14:10.521Z,67.78
2022-09-12T19:16:38.309Z,68.48
2022-09-12T19:19:07.397Z,70.00
2022-09-12T19:21:35.659Z,69.01
2022-09-12T19:24:09.221Z,69.83
2022-09-12T19:26:39.873Z,69.80
2022-09-12T19:29:36.045Z,70.02
2022-09-12T19:32:05.409Z,70.18
2022-09-12T19:34:34.419Z,70.53
2022-09-12T19:37:01.970Z,70.67
2022-09-12T19:39:29.729Z,71.52
2022-09-12T19:41:57.652Z,71.28
2022-09-12T19:44:27.507Z,71.33
2022-09-12T19:46:55.111Z,72.05
2022-09-12T19:49:22.718Z,72.15
2022-09-12T19:51:51.697Z,71.99
2022-09-12T19:54:19.246Z,71.47
2022-09-12T19:56:47.095Z,71.62
2022-09-12T19:59:14.681Z,72.06
2022-09-12T20:01:42.967Z,71.94
2022-09-12T20:04:10.811Z,71.49
2022-09-12T20:06:38.678Z,71.85
2022-09-12T20:09:07.967Z,71.81
2022-09-12T20:11:35.553Z,72.06
2022-09-12T20:14:03.402Z,71.98
2022-09-12T20:16:31.628Z,72.49
2022-09-12T20:19:01.663Z,72.62
2022-09-12T20:21:32.837Z,73.10
2022-09-12T20:24:01.716Z,73.59
2022-09-12T20:26:31.034Z,74.23
2022-09-12T20:29:03.252Z,74.73
2022-09-12T20:31:31.246Z,75.36
2022-09-12T20:33:59.274Z,75.11
2022-09-12T20:36:27.733Z,75.74
2022-09-12T20:38:57.723Z,75.69
2022-09-12T20:41:26.604Z,75.57
2022-09-12T20:43:56.830Z,75.46
2022-09-12T20:46:26.254Z,75.58
2022-09-12T20:48:54.323Z,75.73
2022-09-12T20:51:22.575Z,75.75
2022-09-12T20:53:54.074Z,75.93
2022-09-12T20:56:22.772Z,75.97
2022-09-12T20:58:50.350Z,76.39
2022-09-12T21:01:19.392Z,76.52
2022-09-12T21:03:47.705Z,76.63
2022-09-12T21:06:17.319Z,77.66
2022-09-12T21:08:45.526Z,78.14
2022-09-12T21:11:13.932Z,78.03
2022-09-12T21:13:42.284Z,78.22
2022-09-12T21:16:12.796Z,78.53
2022-09-12T21:18:42.735Z,78.45
2022-09-12T21:21:11.658Z,78.69
2022-09-12T21:23:39.698Z,78.68
2022-09-12T21:26:07.731Z,78.30
2022-09-12T21:28:35.568Z,78.59
2022-09-12T21:31:03.439Z,79.09
2022-09-12T21:33:31.083Z,79.43
2022-09-12T21:36:04.751Z,79.15
2022-09-12T21:38:33.074Z,79.53
2022-09-12T21:41:05.578Z,79.35
2022-09-12T21:43:33.138Z,79.83
2022-09-12T21:46:01.273Z,79.20
2022-09-12T21:48:29.193Z,79.30
2022-09-12T21:50:57.262Z,79.32
2022-09-12T21:53:27.500Z,79.56
2022-09-12T21:55:55.210Z,79.86
2022-09-12T21:58:22.809Z,79.39
2022-09-12T22:00:51.099Z,79.63
2022-09-12T22:03:18.786Z,79.03
2022-09-12T22:05:46.440Z,79.64
2022-09-12T22:08:14.170Z,79.36
2022-09-12T22:10:43.287Z,79.57
2022-09-12T22:13:10.852Z,80.04
2022-09-12T22:15:41.083Z,79.78
2022-09-12T22:18:09.018Z,80.15
2022-09-12T22:20:36.617Z,80.34
2022-09-12T22:23:24.853Z,80.42
2022-09-12T22:25:56.499Z,80.59
2022-09-12T22:28:25.080Z,80.26
2022-09-12T22:30:54.716Z,80.30
2022-09-12T22:33:22.428Z,81.01
2022-09-12T22:35:50.162Z,81.20
2022-09-12T22:38:17.761Z,81.40
2022-09-12T22:40:45.447Z,81.51
2022-09-12T22:43:14.430Z,81.29
2022-09-12T22:45:42.722Z,81.63
2022-09-12T22:48:10.381Z,82.13
2022-09-12T22:50:38.404Z,81.94
2022-09-12T22:53:05.982Z,82.47
2022-09-12T22:55:33.559Z,82.19
2022-09-12T22:58:01.414Z,82.21
2022-09-12T23:00:30.574Z,82.42
2022-09-12T23:02:58.273Z,82.45
2022-09-12T23:05:25.953Z,82.85
2022-09-12T23:07:54.098Z,83.05
2022-09-12T23:10:21.846Z,82.80
2022-09-12T23:12:50.040Z,82.89
2022-09-12T23:15:17.790Z,82.73
2022-09-12T23:17:46.728Z,82.57
2022-09-12T23:20:14.472Z,82.88
2022-09-12T23:22:42.098Z,82.78
2022-09-12T23:25:10.010Z,83.81
2022-09-12T23:27:42.521Z,83.53
2022-09-12T23:30:11.178Z,83.63
2022-09-12T23:32:38.738Z,83.35
2022-09-12T23:35:08.324Z,83.37
2022-09-12T23:37:36.025Z,83.09
2022-09-12T23:40:04.208Z,82.52
2022-09-12T23:42:32.023Z,83.31
2022-09-12T23:44:59.611Z,82.91
2022-09-12T23:47:27.198Z,83.43
2022-09-12T23:49:54.953Z,83.07
2022-09-12T23:52:23.878Z,83.24
2022-09-12T23:54:51.414Z,83.50
2022-09-12T23:57:18.971Z,83.44
2022-09-12T23:59:46.522Z,83.67
